createdAt,value
2022-11-29T00:02:07.793Z,1.70
2022-11-29T00:04:34.893Z,1.70
2022-11-29T00:07:02.246Z,1.70
2022-11-29T00:10:00.075Z,1.70
2022-11-29T00:12:27.749Z,1.70
2022-11-29T00:14:54.745Z,1.70
2022-11-29T00:17:22.036Z,1.70
2022-11-29T00:19:48.978Z,1.70
2022-11-29T00:22:16.190Z,1.70
2022-11-29T00:24:43.816Z,1.70
2022-11-29T00:27:12.127Z,1.70
2022-11-29T00:29:45.103Z,1.60
2022-11-29T00:32:18.317Z,1.60
2022-11-29T00:34:45.548Z,1.60
2022-11-29T00:37:12.980Z,1.60
2022-11-29T00:39:41.113Z,1.70
2022-11-29T00:42:08.398Z,1.70
2022-11-29T00:44:35.381Z,1.70
2022-11-29T00:47:06.217Z,1.70
2022-11-29T00:49:56.171Z,1.70
2022-11-29T00:52:23.414Z,1.60
2022-11-29T00:54:50.352Z,1.60
2022-11-29T00:57:17.557Z,1.70
2022-11-29T00:59:44.538Z,1.60
2022-11-29T01:02:11.768Z,1.70
2022-11-29T01:04:47.711Z,1.60
2022-11-29T01:07:24.099Z,1.60
2022-11-29T01:09:51.273Z,1.60
2022-11-29T01:12:18.502Z,1.60
2022-11-29T01:14:45.621Z,1.50
2022-11-29T01:17:13.012Z,1.60
2022-11-29T01:19:40.045Z,1.60
2022-11-29T01:22:07.917Z,1.60
2022-11-29T01:24:34.880Z,1.60
2022-11-29T01:27:02.244Z,1.60
2022-11-29T01:29:29.202Z,1.60
2022-11-29T01:31:56.454Z,1.70
2022-11-29T01:34:23.455Z,1.60
2022-11-29T01:36:50.670Z,1.60
2022-11-29T01:39:17.618Z,1.50
2022-11-29T01:41:48.322Z,1.60
2022-11-29T01:44:26.734Z,1.60
2022-11-29T01:46:54.784Z,1.50
2022-11-29T01:49:24.278Z,1.60
2022-11-29T01:51:59.827Z,1.60
2022-11-29T01:54:27.406Z,1.60
2022-11-29T01:56:54.699Z,1.60
2022-11-29T01:59:42.051Z,1.50
2022-11-29T02:02:30.245Z,1.50
2022-11-29T02:04:59.450Z,1.50
2022-11-29T02:07:26.788Z,1.50
2022-11-29T02:09:53.739Z,1.40
2022-11-29T02:12:50.266Z,1.50
2022-11-29T02:15:17.446Z,1.50
2022-11-29T02:18:17.533Z,1.50
2022-11-29T02:20:57.419Z,1.60
2022-11-29T02:23:46.754Z,1.60
2022-11-29T02:26:32.386Z,1.60
2022-11-29T02:29:17.907Z,1.60
2022-11-29T02:31:50.735Z,1.60
2022-11-29T02:34:26.496Z,1.60
2022-11-29T02:37:21.397Z,1.60
2022-11-29T02:39:59.025Z,1.70
2022-11-29T02:42:56.018Z,1.70
2022-11-29T02:45:56.363Z,1.70
2022-11-29T02:48:50.661Z,1.70
2022-11-29T02:51:42.750Z,1.70
2022-11-29T02:54:28.342Z,1.70
2022-11-29T02:57:52.227Z,1.70
2022-11-29T03:00:21.474Z,1.70
2022-11-29T03:02:51.861Z,1.80
2022-11-29T03:05:49.509Z,1.70
2022-11-29T03:08:38.410Z,1.80
2022-11-29T03:11:20.533Z,1.80
2022-11-29T03:33:29.188Z,1.80
2022-11-29T03:36:29.668Z,1.80
2022-11-29T03:39:03.549Z,1.70
2022-11-29T03:41:53.703Z,1.70
2022-11-29T03:44:28.219Z,1.70
2022-11-29T03:47:02.505Z,1.80
2022-11-29T03:49:54.851Z,1.90
2022-11-29T03:53:06.873Z,1.80
2022-11-29T03:55:54.422Z,1.80
2022-11-29T03:58:35.173Z,1.90
2022-11-29T04:01:22.647Z,1.90
2022-11-29T04:04:09.016Z,1.90
2022-11-29T04:31:26.006Z,1.70
2022-11-29T04:34:05.152Z,1.70
2022-11-29T04:37:30.410Z,1.70
2022-11-29T04:40:23.590Z,1.80
2022-11-29T04:42:56.460Z,1.80
2022-11-29T04:45:36.415Z,1.80
2022-11-29T04:48:38.688Z,1.70
2022-11-29T04:51:36.477Z,1.70
2022-11-29T04:54:51.321Z,1.70
2022-11-29T04:58:09.715Z,1.70
2022-11-29T05:01:08.862Z,1.70
2022-11-29T05:03:46.906Z,1.70
2022-11-29T05:06:25.477Z,1.70
2022-11-29T05:09:12.109Z,1.70
2022-11-29T05:12:11.955Z,1.60
2022-11-29T05:16:01.121Z,1.70
2022-11-29T05:19:31.895Z,1.70
2022-11-29T05:22:02.487Z,1.80
2022-11-29T05:24:38.190Z,1.80
2022-11-29T05:27:23.193Z,1.80
2022-11-29T05:30:13.558Z,1.80
2022-11-29T05:33:25.540Z,1.80
2022-11-29T06:16:51.372Z,2.00
2022-11-29T06:49:32.662Z,2.00
2022-11-29T06:52:36.498Z,2.10
2022-11-29T06:58:32.864Z,2.10
2022-11-29T07:01:21.541Z,2.10
2022-11-29T07:03:55.910Z,2.20
2022-11-29T07:06:26.175Z,2.10
2022-11-29T07:08:59.061Z,2.20
2022-11-29T07:11:27.494Z,2.10
2022-11-29T07:13:54.853Z,2.10
2022-11-29T07:16:28.081Z,2.30
2022-11-29T07:19:06.856Z,2.30
2022-11-29T07:21:55.094Z,2.30
2022-11-29T07:25:10.478Z,2.40
2022-11-29T07:27:47.921Z,2.30
2022-11-29T07:30:23.119Z,2.30
2022-11-29T07:33:16.957Z,2.30
2022-11-29T07:36:06.104Z,2.20
2022-11-29T07:39:00.719Z,2.30
2022-11-29T07:42:07.777Z,2.30
2022-11-29T07:45:00.683Z,2.40
2022-11-29T07:47:32.600Z,2.40
2022-11-29T07:50:02.753Z,2.30
2022-11-29T07:52:29.828Z,2.30
2022-11-29T07:54:57.129Z,2.30
2022-11-29T07:57:24.217Z,2.30
2022-11-29T07:59:51.643Z,2.40
2022-11-29T08:02:48.342Z,2.50
2022-11-29T08:05:16.488Z,2.60
2022-11-29T08:07:44.379Z,2.60
2022-11-29T08:10:14.758Z,2.60
2022-11-29T08:12:48.358Z,2.70
2022-11-29T08:15:16.944Z,2.70
2022-11-29T08:17:44.367Z,2.70
2022-11-29T08:20:13.251Z,2.70
2022-11-29T08:22:40.469Z,2.70
2022-11-29T08:25:08.743Z,2.70
2022-11-29T08:27:37.135Z,2.70
2022-11-29T08:30:05.989Z,2.60
2022-11-29T08:32:34.508Z,2.50
2022-11-29T08:35:14.429Z,2.60
2022-11-29T08:37:49.711Z,2.60
2022-11-29T08:40:21.742Z,2.60
2022-11-29T08:42:48.909Z,2.80
2022-11-29T08:45:16.388Z,2.80
2022-11-29T08:47:43.693Z,2.80
2022-11-29T08:50:17.109Z,2.80
2022-11-29T08:53:07.743Z,2.80
2022-11-29T08:55:43.050Z,2.90
2022-11-29T08:58:18.284Z,3.00
2022-11-29T09:00:47.101Z,2.90
2022-11-29T09:03:33.059Z,2.90
2022-11-29T09:06:12.435Z,2.90
2022-11-29T09:08:41.405Z,2.90
2022-11-29T09:11:13.748Z,3.00
2022-11-29T09:14:20.154Z,3.10
2022-11-29T09:16:50.188Z,3.10
2022-11-29T09:19:17.310Z,3.20
2022-11-29T09:21:44.605Z,3.20
2022-11-29T09:24:11.909Z,3.10
2022-11-29T09:26:40.837Z,3.10
2022-11-29T09:29:07.846Z,3.10
2022-11-29T09:32:01.762Z,3.10
2022-11-29T09:34:48.352Z,3.20
2022-11-29T09:37:16.730Z,3.20
2022-11-29T09:39:47.077Z,3.10
2022-11-29T09:42:27.329Z,3.10
2022-11-29T09:45:09.411Z,3.10
2022-11-29T09:47:42.565Z,2.90
2022-11-29T09:51:25.512Z,3.00
2022-11-29T09:54:16.033Z,3.10
2022-11-29T09:56:47.422Z,3.20
2022-11-29T09:59:21.838Z,3.20
2022-11-29T10:01:57.929Z,3.30
2022-11-29T10:04:36.287Z,3.30
2022-11-29T10:07:35.314Z,3.20
2022-11-29T10:10:20.977Z,3.20
2022-11-29T10:13:15.962Z,3.20
2022-11-29T10:15:50.119Z,3.20
2022-11-29T10:18:31.257Z,3.10
2022-11-29T10:21:06.553Z,3.20
2022-11-29T10:23:38.825Z,3.20
2022-11-29T10:26:08.453Z,3.20
2022-11-29T10:28:58.059Z,3.30
2022-11-29T10:31:49.406Z,3.20
2022-11-29T10:34:20.056Z,3.20
2022-11-29T10:36:59.972Z,3.20
2022-11-29T10:39:39.833Z,3.30
2022-11-29T10:42:35.837Z,3.20
2022-11-29T10:45:37.342Z,3.30
2022-11-29T10:48:19.917Z,3.20
2022-11-29T10:50:50.302Z,3.20
2022-11-29T10:53:20.594Z,3.20
2022-11-29T10:56:10.836Z,3.20
2022-11-29T10:58:54.861Z,3.20
2022-11-29T11:01:22.723Z,3.20
2022-11-29T11:04:00.426Z,3.30
2022-11-29T11:06:52.343Z,3.40
2022-11-29T11:09:19.604Z,3.40
2022-11-29T11:11:55.324Z,3.30
2022-11-29T11:14:33.182Z,3.30
2022-11-29T11:17:26.423Z,3.30
2022-11-29T11:20:08.964Z,3.40
2022-11-29T11:23:04.642Z,3.40
2022-11-29T11:25:50.911Z,3.20
2022-11-29T11:28:27.465Z,3.30
2022-11-29T11:31:08.457Z,3.20
2022-11-29T11:33:43.298Z,3.10
2022-11-29T11:36:21.060Z,3.10
2022-11-29T11:39:22.205Z,3.10
2022-11-29T11:42:41.486Z,3.20
2022-11-29T11:45:11.498Z,3.30
2022-11-29T11:47:49.201Z,3.30
2022-11-29T11:50:27.688Z,3.30
2022-11-29T11:53:00.801Z,3.30
2022-11-29T11:55:33.389Z,3.30
2022-11-29T11:59:12.377Z,3.40
2022-11-29T12:02:32.175Z,3.30
2022-11-29T12:05:02.562Z,3.30
2022-11-29T12:08:07.677Z,3.20
2022-11-29T12:10:39.934Z,3.30
2022-11-29T12:13:16.861Z,3.30
2022-11-29T12:19:47.606Z,3.20
2022-11-29T12:23:08.071Z,3.30
2022-11-29T12:25:47.457Z,3.20
2022-11-29T12:28:20.530Z,3.10
2022-11-29T12:30:48.184Z,3.10
2022-11-29T12:33:35.837Z,3.00
2022-11-29T12:37:05.058Z,3.00
2022-11-29T12:40:06.351Z,3.10
2022-11-29T12:43:12.438Z,3.00
2022-11-29T12:46:09.032Z,3.00
2022-11-29T12:48:49.281Z,3.00
2022-11-29T12:51:16.240Z,3.10
2022-11-29T12:54:03.054Z,3.00
2022-11-29T12:57:09.413Z,3.00
2022-11-29T13:00:12.805Z,3.00
2022-11-29T13:03:10.485Z,3.00
2022-11-29T13:05:50.721Z,3.00
2022-11-29T13:08:26.764Z,3.00
2022-11-29T13:11:46.520Z,2.90
2022-11-29T13:26:33.137Z,2.70
2022-11-29T13:29:01.755Z,2.70
2022-11-29T13:31:48.350Z,2.70
2022-11-29T13:34:50.429Z,2.70
2022-11-29T13:37:39.241Z,2.70
2022-11-29T13:40:23.846Z,2.70
2022-11-29T13:43:05.131Z,2.70
2022-11-29T13:45:51.741Z,2.70
2022-11-29T13:48:58.620Z,2.70
2022-11-29T13:51:38.623Z,2.70
2022-11-29T13:54:25.475Z,2.70
2022-11-29T13:57:03.566Z,2.70
2022-11-29T13:59:35.130Z,2.70
2022-11-29T14:02:03.988Z,2.70
2022-11-29T14:04:45.541Z,2.70
2022-11-29T14:07:23.851Z,2.60
2022-11-29T14:10:29.224Z,2.60
2022-11-29T14:13:02.079Z,2.70
2022-11-29T14:15:33.950Z,2.60
2022-11-29T14:18:09.472Z,2.70
2022-11-29T14:20:39.589Z,2.70
2022-11-29T14:23:08.866Z,2.70
2022-11-29T14:26:25.054Z,2.70
2022-11-29T14:29:47.344Z,2.50
2022-11-29T14:32:33.020Z,2.50
2022-11-29T14:35:12.438Z,2.50
2022-11-29T14:38:04.774Z,2.50
2022-11-29T14:40:32.041Z,2.50
2022-11-29T14:43:50.390Z,2.40
2022-11-29T14:46:40.198Z,2.40
2022-11-29T14:49:16.043Z,2.40
2022-11-29T14:52:07.225Z,2.50
2022-11-29T14:54:35.568Z,2.50
2022-11-29T14:57:42.906Z,2.40
2022-11-29T15:00:12.143Z,2.40
2022-11-29T15:03:46.612Z,2.40
2022-11-29T15:06:43.281Z,2.40
2022-11-29T15:09:19.787Z,2.30
2022-11-29T15:11:55.911Z,2.30
2022-11-29T15:14:26.314Z,2.30
2022-11-29T15:17:14.526Z,2.40
2022-11-29T15:20:31.172Z,2.40
2022-11-29T15:23:39.259Z,2.40
2022-11-29T15:26:17.991Z,2.50
2022-11-29T15:28:48.233Z,2.40
2022-11-29T15:31:20.747Z,2.30
2022-11-29T15:33:49.363Z,2.30
2022-11-29T15:36:20.563Z,2.30
2022-11-29T15:41:59.898Z,2.40
2022-11-29T15:44:28.031Z,2.40
2022-11-29T15:46:55.286Z,2.40
2022-11-29T15:49:27.147Z,2.40
2022-11-29T15:52:10.896Z,2.40
2022-11-29T15:54:48.663Z,2.40
2022-11-29T15:58:08.329Z,2.40
2022-11-29T16:01:02.259Z,2.40
2022-11-29T16:03:34.760Z,2.30
2022-11-29T16:06:32.373Z,2.30
2022-11-29T16:09:01.356Z,2.30
2022-11-29T16:11:31.545Z,2.30
2022-11-29T16:14:04.800Z,2.30
2022-11-29T16:20:23.605Z,2.30
2022-11-29T16:23:04.838Z,2.30
2022-11-29T16:25:37.404Z,2.30
2022-11-29T16:28:06.501Z,2.30
2022-11-29T16:30:34.515Z,2.30
2022-11-29T16:33:03.575Z,2.40
2022-11-29T16:38:31.700Z,2.30
2022-11-29T16:41:06.147Z,2.30
2022-11-29T16:43:56.055Z,2.30
2022-11-29T16:46:25.704Z,2.40
2022-11-29T16:48:54.473Z,2.30
2022-11-29T16:51:27.178Z,2.40
2022-11-29T16:57:36.710Z,2.30
2022-11-29T17:00:21.222Z,2.30
2022-11-29T17:02:49.068Z,2.30
2022-11-29T17:05:16.253Z,2.30
2022-11-29T17:07:43.882Z,2.40
2022-11-29T17:16:53.741Z,2.50
2022-11-29T17:19:25.373Z,2.40
2022-11-29T17:21:52.889Z,2.40
2022-11-29T17:24:22.312Z,2.40
2022-11-29T17:26:50.171Z,2.40
2022-11-29T17:32:58.411Z,2.30
2022-11-29T17:35:25.702Z,2.30
2022-11-29T17:37:52.783Z,2.30
2022-11-29T17:40:20.276Z,2.30
2022-11-29T17:42:48.574Z,2.30
2022-11-29T17:45:15.967Z,2.30
2022-11-29T17:48:01.718Z,2.30
2022-11-29T17:54:36.026Z,2.40
2022-11-29T17:57:04.640Z,2.30
2022-11-29T17:59:31.703Z,2.30
2022-11-29T18:01:59.133Z,2.30
2022-11-29T18:04:26.232Z,2.30
2022-11-29T18:07:02.347Z,2.30
2022-11-29T18:09:46.466Z,2.30
2022-11-29T18:12:13.880Z,2.40
2022-11-29T18:14:41.446Z,2.40
2022-11-29T18:17:09.253Z,2.40
2022-11-29T18:19:36.380Z,2.40
2022-11-29T18:22:03.619Z,2.40
2022-11-29T18:24:49.328Z,2.40
2022-11-29T18:27:28.044Z,2.40
2022-11-29T18:29:55.137Z,2.50
2022-11-29T18:32:22.493Z,2.40
2022-11-29T18:34:49.584Z,2.40
2022-11-29T18:37:32.887Z,2.30
2022-11-29T18:40:03.958Z,2.30
2022-11-29T18:43:31.657Z,2.20
2022-11-29T18:46:35.558Z,2.20
2022-11-29T18:49:05.753Z,2.30
2022-11-29T18:51:36.982Z,2.30
2022-11-29T18:54:05.321Z,2.30
2022-11-29T18:56:34.502Z,2.30
2022-11-29T18:59:08.531Z,2.30
2022-11-29T19:01:55.408Z,2.20
2022-11-29T19:04:55.104Z,2.30
2022-11-29T19:07:22.124Z,2.30
2022-11-29T19:09:49.424Z,2.30
2022-11-29T19:12:16.462Z,2.30
2022-11-29T19:14:49.516Z,2.30
2022-11-29T19:17:17.044Z,2.30
2022-11-29T19:19:53.287Z,2.20
2022-11-29T19:23:00.316Z,2.30
2022-11-29T19:25:33.800Z,2.30
2022-11-29T19:28:01.017Z,2.30
2022-11-29T19:30:28.289Z,2.30
2022-11-29T19:32:55.263Z,2.30
2022-11-29T19:35:22.515Z,2.30
2022-11-29T19:38:00.250Z,2.30
2022-11-29T19:40:51.344Z,2.30
2022-11-29T19:43:24.378Z,2.40
2022-11-29T19:45:51.414Z,2.30
2022-11-29T19:48:18.694Z,2.30
2022-11-29T19:50:45.687Z,2.40
2022-11-29T19:53:13.004Z,2.40
2022-11-29T19:55:48.746Z,2.40
2022-11-29T19:58:25.399Z,2.40
2022-11-29T20:00:56.411Z,2.40
2022-11-29T20:03:23.750Z,2.30
2022-11-29T20:05:55.562Z,2.30
2022-11-29T20:08:22.906Z,2.30
2022-11-29T20:10:51.169Z,2.30
2022-11-29T20:13:18.523Z,2.30
2022-11-29T20:15:51.757Z,2.40
2022-11-29T20:18:34.555Z,2.30
2022-11-29T20:21:20.168Z,2.30
2022-11-29T20:23:49.395Z,2.30
2022-11-29T20:26:19.187Z,2.30
2022-11-29T20:28:47.636Z,2.30
2022-11-29T20:31:17.490Z,2.30
2022-11-29T20:33:59.679Z,2.30
2022-11-29T20:36:37.151Z,2.30
2022-11-29T20:39:25.963Z,2.20
2022-11-29T20:42:31.617Z,2.20
2022-11-29T20:45:06.452Z,2.20
2022-11-29T20:47:55.982Z,2.20
2022-11-29T20:50:25.111Z,2.10
2022-11-29T20:53:20.392Z,2.20
2022-11-29T20:58:34.126Z,2.20
2022-11-29T21:01:02.050Z,2.00
2022-11-29T21:03:29.977Z,2.10
2022-11-29T21:06:01.101Z,2.10
2022-11-29T21:08:28.374Z,2.10
2022-11-29T21:11:27.179Z,2.10
2022-11-29T21:14:09.795Z,2.10
2022-11-29T21:16:37.268Z,2.10
2022-11-29T21:19:04.577Z,2.10
2022-11-29T21:21:38.248Z,2.10
2022-11-29T21:24:46.051Z,2.10
2022-11-29T21:27:23.654Z,2.00
2022-11-29T21:30:07.190Z,2.00
2022-11-29T21:32:35.265Z,2.00
2022-11-29T21:35:02.236Z,2.00
2022-11-29T21:37:30.886Z,2.00
2022-11-29T21:39:57.925Z,2.00
2022-11-29T21:42:25.256Z,1.90
2022-11-29T21:44:52.276Z,2.00
2022-11-29T21:48:48.671Z,2.00
2022-11-29T21:51:19.611Z,2.10
2022-11-29T21:53:49.289Z,2.10
2022-11-29T21:56:16.328Z,2.10
2022-11-29T21:58:43.773Z,2.10
2022-11-29T22:01:19.164Z,2.00
2022-11-29T22:03:47.846Z,2.00
2022-11-29T22:06:30.448Z,2.10
2022-11-29T22:09:31.187Z,2.00
2022-11-29T22:11:59.040Z,2.00
2022-11-29T22:14:26.397Z,2.00
2022-11-29T22:16:56.272Z,2.00
2022-11-29T22:19:30.921Z,2.00
2022-11-29T22:22:00.239Z,2.00
2022-11-29T22:24:38.607Z,2.00
2022-11-29T22:27:07.261Z,2.10
2022-11-29T22:29:34.517Z,2.10
2022-11-29T22:32:02.313Z,2.00
2022-11-29T22:34:29.574Z,1.90
2022-11-29T22:36:56.852Z,1.90
2022-11-29T22:39:24.262Z,1.90
2022-11-29T22:41:59.271Z,1.90
2022-11-29T22:44:50.621Z,1.90
2022-11-29T22:47:17.841Z,1.80
2022-11-29T22:49:45.114Z,1.90
2022-11-29T22:52:12.135Z,1.90
2022-11-29T22:54:39.338Z,1.90
2022-11-29T22:57:06.458Z,2.00
2022-11-29T22:59:33.749Z,2.00
2022-11-29T23:05:05.809Z,2.00
2022-11-29T23:07:32.812Z,2.00
2022-11-29T23:10:00.101Z,2.00
2022-11-29T23:12:27.042Z,1.90
2022-11-29T23:14:56.633Z,1.90
2022-11-29T23:17:23.974Z,1.90
2022-11-29T23:22:48.243Z,2.00
2022-11-29T23:25:15.553Z,2.00
2022-11-29T23:27:42.517Z,2.00
2022-11-29T23:30:10.191Z,1.90
2022-11-29T23:32:37.108Z,1.90
2022-11-29T23:35:04.661Z,1.90
2022-11-29T23:37:40.223Z,1.90
2022-11-29T23:40:19.859Z,2.00
2022-11-29T23:42:51.688Z,1.90
2022-11-29T23:45:19.238Z,1.90
2022-11-29T23:47:46.199Z,1.90
2022-11-29T23:50:13.512Z,1.90
2022-11-29T23:52:40.515Z,1.90
2022-11-29T23:59:53.241Z,1.90
